createdAt,value
2023-04-09T00:00:11.160Z,7.90
2023-04-09T00:02:42.079Z,7.90
2023-04-09T00:05:10.571Z,7.90
2023-04-09T00:07:38.739Z,7.90
2023-04-09T00:10:07.513Z,7.90
2023-04-09T00:12:37.928Z,8.00
2023-04-09T00:15:06.468Z,8.00
2023-04-09T00:17:34.905Z,8.00
2023-04-09T00:20:04.091Z,8.00
2023-04-09T00:22:32.801Z,8.00
2023-04-09T00:25:01.250Z,8.00
2023-04-09T00:27:29.585Z,8.00
2023-04-09T00:29:59.029Z,8.00
2023-04-09T00:32:27.568Z,8.00
2023-04-09T00:34:55.830Z,8.00
2023-04-09T00:37:23.943Z,8.00
2023-04-09T00:39:52.408Z,8.00
2023-04-09T00:42:21.754Z,8.30
2023-04-09T00:44:49.804Z,8.10
2023-04-09T00:47:19.990Z,8.10
2023-04-09T00:49:48.742Z,8.10
2023-04-09T00:52:17.081Z,8.10
2023-04-09T00:54:45.201Z,8.10
2023-04-09T00:57:13.537Z,8.10
2023-04-09T00:59:41.776Z,8.10
2023-04-09T01:02:10.784Z,8.10
2023-04-09T01:04:42.571Z,8.10
2023-04-09T01:07:13.297Z,8.10
2023-04-09T01:09:43.438Z,8.10
2023-04-09T01:12:15.786Z,8.10
2023-04-09T01:14:50.651Z,8.10
2023-04-09T01:17:25.473Z,8.10
2023-04-09T01:20:00.235Z,8.10
2023-04-09T01:22:41.819Z,8.00
2023-04-09T01:25:14.911Z,8.10
2023-04-09T01:27:53.197Z,8.10
2023-04-09T01:30:22.968Z,8.10
2023-04-09T01:32:51.973Z,8.10
2023-04-09T01:35:21.004Z,8.10
2023-04-09T01:37:49.350Z,8.10
2023-04-09T01:40:18.307Z,8.10
2023-04-09T01:42:47.347Z,8.10
2023-04-09T01:45:16.505Z,8.10
2023-04-09T01:47:46.478Z,8.10
2023-04-09T01:50:15.286Z,8.10
2023-04-09T01:52:43.398Z,8.00
2023-04-09T01:55:11.696Z,8.00
2023-04-09T01:57:40.128Z,8.10
2023-04-09T02:00:12.134Z,8.00
2023-04-09T02:02:52.929Z,7.90
2023-04-09T02:05:23.344Z,7.80
2023-04-09T02:07:55.397Z,7.70
2023-04-09T02:10:25.074Z,7.60
2023-04-09T02:12:53.496Z,7.60
2023-04-09T02:15:22.560Z,7.60
2023-04-09T02:17:52.488Z,7.50
2023-04-09T02:20:21.836Z,7.20
2023-04-09T02:22:50.392Z,7.50
2023-04-09T02:25:18.456Z,7.40
2023-04-09T02:27:46.899Z,7.30
2023-04-09T02:30:14.999Z,7.20
2023-04-09T02:32:43.660Z,7.10
2023-04-09T02:35:13.071Z,7.20
2023-04-09T02:37:41.719Z,7.20
2023-04-09T02:40:10.332Z,7.20
2023-04-09T02:42:39.153Z,7.20
2023-04-09T02:45:08.833Z,7.30
2023-04-09T02:47:36.929Z,7.30
2023-04-09T02:50:05.346Z,7.40
2023-04-09T02:52:37.006Z,7.40
2023-04-09T02:55:05.277Z,7.50
2023-04-09T02:57:33.869Z,7.50
2023-04-09T03:00:01.905Z,7.60
2023-04-09T03:02:33.961Z,7.60
2023-04-09T03:05:02.309Z,7.60
2023-04-09T03:07:32.078Z,7.70
2023-04-09T03:10:01.475Z,7.70
2023-04-09T03:12:30.945Z,7.70
2023-04-09T03:14:59.091Z,7.70
2023-04-09T03:17:27.615Z,7.60
2023-04-09T03:19:55.731Z,7.60
2023-04-09T03:22:24.238Z,7.60
2023-04-09T03:24:54.354Z,7.40
2023-04-09T03:27:23.964Z,7.30
2023-04-09T03:29:56.773Z,7.10
2023-04-09T03:32:34.753Z,7.00
2023-04-09T03:35:03.213Z,7.00
2023-04-09T03:37:32.455Z,7.00
2023-04-09T03:40:00.730Z,7.10
2023-04-09T03:42:34.956Z,7.10
2023-04-09T03:45:04.089Z,7.20
2023-04-09T03:47:41.605Z,7.20
2023-04-09T03:50:10.600Z,7.20
2023-04-09T03:52:48.247Z,7.30
2023-04-09T03:55:16.534Z,7.20
2023-04-09T03:57:46.388Z,7.10
2023-04-09T04:00:19.209Z,7.10
2023-04-09T04:03:05.525Z,7.10
2023-04-09T04:05:54.927Z,7.10
2023-04-09T04:08:23.351Z,7.10
2023-04-09T04:10:51.619Z,7.10
2023-04-09T04:13:22.824Z,7.10
2023-04-09T04:15:57.578Z,7.10
2023-04-09T04:18:25.930Z,7.10
2023-04-09T04:20:55.231Z,7.10
2023-04-09T04:23:23.394Z,7.20
2023-04-09T04:26:10.229Z,7.20
2023-04-09T04:28:40.714Z,7.20
2023-04-09T04:31:13.757Z,7.10
2023-04-09T04:33:43.392Z,7.10
2023-04-09T04:36:15.855Z,7.30
2023-04-09T04:38:53.808Z,7.10
2023-04-09T04:41:37.734Z,7.10
2023-04-09T04:44:14.781Z,7.10
2023-04-09T04:46:44.366Z,7.10
2023-04-09T04:49:12.772Z,7.00
2023-04-09T04:51:48.552Z,7.00
2023-04-09T04:54:17.812Z,7.00
2023-04-09T04:56:53.157Z,6.90
2023-04-09T04:59:34.162Z,6.90
2023-04-09T05:02:05.322Z,6.90
2023-04-09T05:04:40.780Z,6.80
2023-04-09T05:07:12.794Z,6.70
2023-04-09T05:09:48.925Z,6.60
2023-04-09T05:12:18.045Z,6.70
2023-04-09T05:14:52.587Z,6.70
2023-04-09T05:17:21.578Z,6.90
2023-04-09T05:19:51.919Z,6.90
2023-04-09T05:22:24.410Z,7.00
2023-04-09T05:24:52.499Z,7.00
2023-04-09T05:27:24.319Z,7.00
2023-04-09T05:30:00.772Z,7.10
2023-04-09T05:32:29.459Z,7.20
2023-04-09T05:34:59.252Z,7.20
2023-04-09T05:37:28.754Z,7.30
2023-04-09T05:39:57.450Z,7.30
2023-04-09T05:42:26.152Z,7.30
2023-04-09T05:45:03.812Z,7.30
2023-04-09T05:47:31.975Z,7.40
2023-04-09T05:50:06.088Z,7.30
2023-04-09T05:52:34.444Z,7.40
2023-04-09T05:55:04.162Z,7.30
2023-04-09T05:57:43.684Z,7.40
2023-04-09T06:00:15.466Z,7.30
2023-04-09T06:02:48.475Z,7.20
2023-04-09T06:05:17.338Z,7.20
2023-04-09T06:07:48.102Z,7.30
2023-04-09T06:10:16.712Z,7.40
2023-04-09T06:12:45.562Z,7.50
2023-04-09T06:15:14.960Z,7.50
2023-04-09T06:17:43.697Z,7.60
2023-04-09T06:20:12.127Z,7.70
2023-04-09T06:22:40.665Z,7.70
2023-04-09T06:25:08.970Z,7.80
2023-04-09T06:27:37.365Z,7.90
2023-04-09T06:30:05.839Z,8.00
2023-04-09T06:32:46.864Z,8.10
2023-04-09T06:35:20.926Z,8.20
2023-04-09T06:37:49.619Z,8.20
2023-04-09T06:40:18.150Z,8.30
2023-04-09T06:42:47.161Z,8.20
2023-04-09T06:45:23.712Z,8.10
2023-04-09T06:47:53.605Z,8.20
2023-04-09T06:50:21.752Z,8.20
2023-04-09T06:52:50.063Z,8.30
2023-04-09T06:55:18.301Z,8.40
2023-04-09T06:57:46.346Z,8.50
2023-04-09T07:00:14.975Z,8.50
2023-04-09T07:02:43.370Z,8.60
2023-04-09T07:05:13.261Z,8.70
2023-04-09T07:07:41.316Z,8.50
2023-04-09T07:10:10.234Z,8.60
2023-04-09T07:12:38.334Z,8.60
2023-04-09T07:15:07.497Z,8.70
2023-04-09T07:17:35.954Z,8.70
2023-04-09T07:20:04.149Z,8.70
2023-04-09T07:22:34.050Z,8.80
2023-04-09T07:25:02.136Z,8.90
2023-04-09T07:27:31.630Z,8.80
2023-04-09T07:30:00.332Z,9.00
2023-04-09T07:32:29.229Z,9.10
2023-04-09T07:34:57.523Z,9.10
2023-04-09T07:37:26.229Z,9.10
2023-04-09T07:39:55.617Z,9.20
2023-04-09T07:42:24.167Z,9.30
2023-04-09T07:44:52.254Z,9.50
2023-04-09T07:47:20.891Z,9.60
2023-04-09T07:49:48.988Z,9.70
2023-04-09T07:52:17.368Z,9.80
2023-04-09T07:54:45.598Z,9.60
2023-04-09T07:57:15.179Z,9.70
2023-04-09T07:59:43.244Z,9.80
2023-04-09T08:02:14.330Z,9.80
2023-04-09T08:04:43.509Z,10.00
2023-04-09T08:07:11.744Z,10.10
2023-04-09T08:09:40.228Z,10.30
2023-04-09T08:12:08.233Z,10.50
2023-04-09T08:14:37.654Z,10.60
2023-04-09T08:17:06.054Z,10.70
2023-04-09T08:19:34.109Z,10.70
2023-04-09T08:22:02.431Z,10.50
2023-04-09T08:24:31.221Z,10.70
2023-04-09T08:26:59.410Z,10.80
2023-04-09T08:29:27.804Z,10.90
2023-04-09T08:31:57.520Z,11.00
2023-04-09T08:34:25.614Z,11.20
2023-04-09T08:36:53.949Z,11.30
2023-04-09T08:39:22.073Z,11.50
2023-04-09T08:41:52.058Z,11.70
2023-04-09T08:44:21.981Z,11.80
2023-04-09T08:46:51.236Z,11.70
2023-04-09T08:49:20.941Z,11.20
2023-04-09T08:51:50.325Z,10.90
2023-04-09T08:54:20.116Z,10.90
2023-04-09T08:56:48.664Z,10.80
2023-04-09T08:59:18.365Z,10.90
2023-04-09T09:01:48.212Z,11.20
2023-04-09T09:04:16.513Z,11.40
2023-04-09T09:06:46.594Z,11.50
2023-04-09T09:09:15.677Z,11.60
2023-04-09T09:11:44.606Z,11.60
2023-04-09T09:14:13.082Z,11.60
2023-04-09T09:16:43.520Z,11.60
2023-04-09T09:19:28.866Z,11.70
2023-04-09T09:21:59.489Z,11.70
2023-04-09T09:24:27.612Z,11.70
2023-04-09T09:26:55.999Z,11.70
2023-04-09T09:29:24.442Z,11.90
2023-04-09T09:31:53.346Z,11.60
2023-04-09T09:34:22.725Z,11.50
2023-04-09T09:36:51.155Z,11.40
2023-04-09T09:39:21.891Z,11.30
2023-04-09T09:42:07.853Z,11.20
2023-04-09T09:44:35.884Z,11.20
2023-04-09T09:47:04.694Z,11.20
2023-04-09T09:49:33.141Z,11.10
2023-04-09T09:52:04.240Z,10.80
2023-04-09T09:54:37.619Z,10.80
2023-04-09T09:57:08.227Z,10.80
2023-04-09T09:59:39.111Z,11.10
2023-04-09T10:02:08.569Z,11.20
2023-04-09T10:04:38.776Z,11.30
2023-04-09T10:07:08.603Z,11.40
2023-04-09T10:09:42.871Z,11.50
2023-04-09T10:12:11.416Z,11.50
2023-04-09T10:14:40.687Z,11.50
2023-04-09T10:17:09.477Z,11.60
2023-04-09T10:19:39.741Z,12.00
2023-04-09T10:22:11.024Z,11.90
2023-04-09T10:24:39.447Z,11.90
2023-04-09T10:27:15.702Z,12.20
2023-04-09T10:29:45.313Z,12.30
2023-04-09T10:32:14.221Z,12.40
2023-04-09T10:34:45.098Z,12.30
2023-04-09T10:37:15.700Z,12.30
2023-04-09T10:39:45.594Z,12.40
2023-04-09T10:42:18.547Z,12.30
2023-04-09T10:44:46.874Z,12.40
2023-04-09T10:47:32.136Z,12.40
2023-04-09T10:50:00.318Z,12.50
2023-04-09T10:52:31.530Z,12.60
2023-04-09T10:54:59.653Z,12.60
2023-04-09T10:57:29.208Z,12.50
2023-04-09T10:59:58.216Z,12.60
2023-04-09T11:02:45.389Z,12.60
2023-04-09T11:05:22.832Z,12.60
2023-04-09T11:07:54.102Z,12.70
2023-04-09T11:10:22.485Z,12.70
2023-04-09T11:12:51.874Z,12.80
2023-04-09T11:15:21.207Z,12.90
2023-04-09T11:17:50.849Z,12.90
2023-04-09T11:20:21.168Z,13.00
2023-04-09T11:22:50.399Z,13.10
2023-04-09T11:25:22.515Z,13.00
2023-04-09T11:27:52.323Z,12.90
2023-04-09T11:30:20.859Z,12.70
2023-04-09T11:32:49.600Z,12.80
2023-04-09T11:35:19.517Z,12.80
2023-04-09T11:37:47.884Z,12.80
2023-04-09T11:40:17.897Z,12.80
2023-04-09T11:42:46.269Z,12.70
2023-04-09T11:45:17.122Z,12.60
2023-04-09T11:47:46.927Z,12.60
2023-04-09T11:50:17.994Z,12.60
2023-04-09T11:52:46.272Z,12.50
2023-04-09T11:55:23.841Z,12.40
2023-04-09T11:57:53.655Z,12.30
2023-04-09T12:00:25.225Z,12.30
2023-04-09T12:03:05.021Z,12.30
2023-04-09T12:05:34.945Z,12.40
2023-04-09T12:08:04.934Z,12.40
2023-04-09T12:10:34.096Z,12.50
2023-04-09T12:13:03.322Z,12.50
2023-04-09T12:15:37.234Z,12.60
2023-04-09T12:18:08.707Z,12.60
2023-04-09T12:20:39.739Z,12.50
2023-04-09T12:23:08.451Z,12.40
2023-04-09T12:25:37.917Z,12.30
2023-04-09T12:28:06.474Z,12.30
2023-04-09T12:30:36.187Z,12.20
2023-04-09T12:33:05.239Z,12.20
2023-04-09T12:35:34.508Z,12.30
2023-04-09T12:38:03.157Z,12.20
2023-04-09T12:40:31.190Z,12.30
2023-04-09T12:42:59.689Z,12.50
2023-04-09T12:45:28.143Z,12.60
2023-04-09T12:47:58.411Z,12.70
2023-04-09T12:50:26.629Z,12.80
2023-04-09T12:52:54.928Z,13.00
2023-04-09T12:55:23.093Z,13.10
2023-04-09T12:57:51.845Z,13.30
2023-04-09T13:00:21.397Z,13.40
2023-04-09T13:02:49.895Z,13.40
2023-04-09T13:05:19.633Z,13.30
2023-04-09T13:07:47.679Z,13.50
2023-04-09T13:10:16.120Z,13.60
2023-04-09T13:12:44.178Z,13.60
2023-04-09T13:15:13.281Z,13.60
2023-04-09T13:17:41.321Z,13.60
2023-04-09T13:20:11.553Z,13.50
2023-04-09T13:22:41.267Z,13.40
2023-04-09T13:25:10.263Z,13.30
2023-04-09T13:27:38.347Z,13.40
2023-04-09T13:30:07.976Z,13.30
2023-04-09T13:32:36.437Z,13.20
2023-04-09T13:35:05.232Z,13.20
2023-04-09T13:37:33.234Z,13.20
2023-04-09T13:40:02.890Z,13.30
2023-04-09T13:42:32.828Z,13.10
2023-04-09T13:45:01.760Z,13.10
2023-04-09T13:47:31.531Z,13.10
2023-04-09T13:49:59.782Z,13.10
2023-04-09T13:52:29.695Z,12.90
2023-04-09T13:54:58.384Z,12.70
2023-04-09T13:57:28.505Z,12.70
2023-04-09T13:59:56.608Z,12.80
2023-04-09T14:02:25.387Z,12.80
2023-04-09T14:04:53.695Z,12.90
2023-04-09T14:07:21.965Z,12.80
2023-04-09T14:09:50.728Z,12.90
2023-04-09T14:12:19.776Z,12.90
2023-04-09T14:14:50.182Z,13.00
2023-04-09T14:17:18.261Z,13.10
2023-04-09T14:19:46.544Z,13.50
2023-04-09T14:22:14.864Z,13.60
2023-04-09T14:24:43.125Z,13.60
2023-04-09T14:27:11.353Z,13.80
2023-04-09T14:29:39.777Z,14.00
2023-04-09T14:32:09.306Z,14.00
2023-04-09T14:34:37.689Z,14.00
2023-04-09T14:37:05.953Z,14.00
2023-04-09T14:39:35.055Z,14.00
2023-04-09T14:42:03.168Z,14.20
2023-04-09T14:44:31.871Z,13.90
2023-04-09T14:47:00.110Z,13.70
2023-04-09T14:49:29.907Z,13.70
2023-04-09T14:51:58.075Z,13.60
2023-04-09T14:54:27.262Z,13.60
2023-04-09T14:56:55.360Z,13.40
2023-04-09T14:59:24.075Z,12.90
2023-04-09T15:01:52.507Z,13.30
2023-04-09T15:04:20.922Z,13.30
2023-04-09T15:06:50.399Z,13.30
2023-04-09T15:09:19.016Z,13.30
2023-04-09T15:11:47.373Z,13.20
2023-04-09T15:14:15.751Z,13.10
2023-04-09T15:16:44.408Z,13.00
2023-04-09T15:19:12.632Z,12.80
2023-04-09T15:21:41.547Z,12.90
2023-04-09T15:24:10.950Z,12.90
2023-04-09T15:26:40.043Z,12.90
2023-04-09T15:29:09.082Z,12.90
2023-04-09T15:31:40.067Z,12.90
2023-04-09T15:34:13.093Z,12.90
2023-04-09T15:36:41.826Z,12.70
2023-04-09T15:39:11.201Z,12.40
2023-04-09T15:41:39.755Z,12.40
2023-04-09T15:44:08.224Z,12.40
2023-04-09T15:46:36.514Z,12.40
2023-04-09T15:49:08.466Z,12.50
2023-04-09T15:51:37.269Z,12.40
2023-04-09T15:54:05.430Z,12.40
2023-04-09T15:56:40.665Z,12.40
2023-04-09T15:59:10.864Z,12.60
2023-04-09T16:01:40.198Z,12.40
2023-04-09T16:04:09.714Z,12.40
2023-04-09T16:06:39.488Z,12.30
2023-04-09T16:09:09.161Z,12.30
2023-04-09T16:11:38.773Z,12.30
2023-04-09T16:14:07.584Z,12.20
2023-04-09T16:16:37.000Z,12.10
2023-04-09T16:19:07.555Z,12.00
2023-04-09T16:21:39.537Z,12.00
2023-04-09T16:24:13.100Z,12.00
2023-04-09T16:26:43.297Z,12.00
2023-04-09T16:29:12.632Z,12.10
2023-04-09T16:31:42.424Z,12.00
2023-04-09T16:34:11.371Z,12.00
2023-04-09T16:36:42.072Z,12.00
2023-04-09T16:39:10.869Z,12.00
2023-04-09T16:41:39.441Z,11.90
2023-04-09T16:44:08.895Z,11.90
2023-04-09T16:46:37.526Z,11.90
2023-04-09T16:49:07.291Z,11.80
2023-04-09T16:51:38.423Z,11.80
2023-04-09T16:54:06.590Z,11.80
2023-04-09T16:56:37.524Z,11.80
2023-04-09T16:59:05.566Z,11.70
2023-04-09T17:01:36.582Z,11.70
2023-04-09T17:04:04.985Z,11.70
2023-04-09T17:06:34.677Z,11.70
2023-04-09T17:09:05.197Z,11.70
2023-04-09T17:11:34.587Z,11.70
2023-04-09T17:14:03.570Z,11.70
2023-04-09T17:16:32.548Z,11.70
2023-04-09T17:19:01.941Z,11.70
2023-04-09T17:21:31.090Z,11.60
2023-04-09T17:23:59.688Z,11.60
2023-04-09T17:26:28.989Z,11.60
2023-04-09T17:28:57.642Z,11.60
2023-04-09T17:31:33.440Z,11.50
2023-04-09T17:34:03.508Z,11.50
2023-04-09T17:36:32.547Z,11.40
2023-04-09T17:39:00.836Z,11.40
2023-04-09T17:41:29.167Z,11.40
2023-04-09T17:44:01.226Z,11.40
2023-04-09T17:46:29.352Z,11.40
2023-04-09T17:48:59.467Z,11.50
2023-04-09T17:51:29.053Z,11.40
2023-04-09T17:53:57.590Z,11.50
2023-04-09T17:56:27.039Z,11.50
2023-04-09T17:58:55.792Z,11.50
2023-04-09T18:01:24.045Z,11.50
2023-04-09T18:03:52.968Z,11.60
2023-04-09T18:06:21.673Z,11.60
2023-04-09T18:08:53.213Z,11.60
2023-04-09T18:11:21.846Z,11.60
2023-04-09T18:13:50.215Z,11.50
2023-04-09T18:16:21.058Z,11.50
2023-04-09T18:18:49.335Z,11.50
2023-04-09T18:21:18.325Z,11.50
2023-04-09T18:23:46.506Z,11.50
2023-04-09T18:26:18.990Z,11.50
2023-04-09T18:28:47.360Z,11.50
2023-04-09T18:31:15.477Z,11.40
2023-04-09T18:33:44.301Z,11.40
2023-04-09T18:36:12.401Z,11.40
2023-04-09T18:38:40.960Z,11.40
2023-04-09T18:41:11.337Z,11.30
2023-04-09T18:43:40.920Z,11.30
2023-04-09T18:46:09.353Z,11.30
2023-04-09T18:48:37.356Z,11.30
2023-04-09T18:51:05.605Z,11.20
2023-04-09T18:53:33.676Z,11.20
2023-04-09T18:56:02.428Z,11.20
2023-04-09T18:58:30.719Z,11.20
2023-04-09T19:01:01.153Z,11.20
2023-04-09T19:03:30.738Z,11.20
2023-04-09T19:06:00.226Z,11.20
2023-04-09T19:08:32.222Z,11.20
2023-04-09T19:11:00.590Z,11.20
2023-04-09T19:13:28.616Z,11.20
2023-04-09T19:15:57.559Z,11.20
2023-04-09T19:18:27.846Z,11.20
2023-04-09T19:20:56.056Z,11.10
2023-04-09T19:23:24.782Z,11.00
2023-04-09T19:25:55.179Z,10.90
2023-04-09T19:28:26.711Z,10.70
2023-04-09T19:30:54.932Z,10.20
2023-04-09T19:33:24.157Z,10.00
2023-04-09T19:35:55.034Z,9.80
2023-04-09T19:38:23.731Z,9.60
2023-04-09T19:40:51.794Z,9.60
2023-04-09T19:43:23.376Z,9.70
2023-04-09T19:45:51.450Z,9.70
2023-04-09T19:48:20.159Z,9.90
2023-04-09T19:50:48.919Z,10.00
2023-04-09T19:53:18.461Z,10.10
2023-04-09T19:55:47.510Z,10.20
2023-04-09T19:58:15.655Z,10.20
2023-04-09T20:00:44.370Z,10.30
2023-04-09T20:03:13.024Z,10.30
2023-04-09T20:05:41.472Z,10.30
2023-04-09T20:08:12.815Z,10.40
2023-04-09T20:10:46.581Z,10.40
2023-04-09T20:13:14.635Z,10.40
2023-04-09T20:15:43.034Z,10.40
2023-04-09T20:18:11.115Z,10.40
2023-04-09T20:20:39.753Z,10.40
2023-04-09T20:23:08.031Z,10.50
2023-04-09T20:25:36.716Z,10.50
2023-04-09T20:28:08.845Z,10.50
2023-04-09T20:30:36.963Z,10.60
2023-04-09T20:33:05.621Z,10.60
2023-04-09T20:35:34.849Z,10.60
2023-04-09T20:38:03.486Z,10.40
2023-04-09T20:40:36.310Z,9.90
2023-04-09T20:43:06.087Z,9.50
2023-04-09T20:45:34.249Z,9.20
2023-04-09T20:48:03.619Z,8.90
2023-04-09T20:50:31.964Z,8.70
2023-04-09T20:53:00.584Z,8.50
2023-04-09T20:55:28.609Z,8.20
2023-04-09T20:57:56.996Z,8.10
2023-04-09T21:00:27.432Z,8.00
2023-04-09T21:02:56.801Z,8.00
2023-04-09T21:05:24.932Z,8.00
2023-04-09T21:07:53.683Z,8.10
2023-04-09T21:10:21.790Z,8.20
2023-04-09T21:12:50.216Z,8.20
2023-04-09T21:15:18.333Z,8.00
2023-04-09T21:17:48.265Z,8.00
2023-04-09T21:20:16.615Z,8.00
2023-04-09T21:22:45.016Z,8.10
2023-04-09T21:25:14.670Z,8.20
2023-04-09T21:27:44.795Z,8.20
2023-04-09T21:30:13.143Z,8.20
2023-04-09T21:32:42.044Z,8.40
2023-04-09T21:35:14.568Z,8.50
2023-04-09T21:37:43.505Z,8.40
2023-04-09T21:40:11.780Z,8.40
2023-04-09T21:42:40.780Z,8.40
2023-04-09T21:45:09.230Z,8.30
2023-04-09T21:47:37.759Z,8.20
2023-04-09T21:50:06.256Z,8.20
2023-04-09T21:52:36.031Z,8.20
2023-04-09T21:55:04.242Z,8.20
2023-04-09T21:57:32.630Z,8.10
2023-04-09T22:00:01.071Z,8.10
2023-04-09T22:02:31.645Z,8.00
2023-04-09T22:05:00.495Z,8.00
2023-04-09T22:07:28.713Z,7.90
2023-04-09T22:09:59.249Z,7.90
2023-04-09T22:12:27.279Z,7.90
2023-04-09T22:14:55.463Z,7.90
2023-04-09T22:17:23.485Z,7.90
2023-04-09T22:19:52.182Z,7.90
2023-04-09T22:22:20.226Z,7.90
2023-04-09T22:24:48.749Z,8.00
2023-04-09T22:27:18.120Z,8.20
2023-04-09T22:29:47.531Z,8.30
2023-04-09T22:32:15.813Z,8.30
2023-04-09T22:34:44.284Z,8.30
2023-04-09T22:37:12.416Z,8.20
2023-04-09T22:39:41.181Z,8.00
2023-04-09T22:42:11.336Z,8.10
2023-04-09T22:44:41.422Z,8.10
2023-04-09T22:47:09.858Z,8.00
2023-04-09T22:49:38.596Z,8.00
2023-04-09T22:52:06.649Z,8.00
2023-04-09T22:54:34.679Z,8.00
2023-04-09T22:57:03.231Z,8.10
2023-04-09T22:59:40.432Z,8.10
2023-04-09T23:02:14.865Z,8.00
2023-04-09T23:04:43.063Z,7.90
2023-04-09T23:07:11.405Z,7.40
2023-04-09T23:09:39.582Z,7.10
2023-04-09T23:12:08.054Z,7.00
2023-04-09T23:14:36.359Z,7.10
2023-04-09T23:17:04.908Z,7.10
2023-04-09T23:19:34.285Z,7.10
2023-04-09T23:22:02.716Z,7.20
2023-04-09T23:24:30.821Z,7.20
2023-04-09T23:26:59.578Z,7.00
2023-04-09T23:29:27.591Z,7.00
2023-04-09T23:31:56.146Z,7.20
2023-04-09T23:34:24.400Z,7.20
2023-04-09T23:36:54.004Z,7.30
2023-04-09T23:39:22.453Z,7.40
2023-04-09T23:41:50.460Z,7.40
2023-04-09T23:44:18.792Z,7.30
2023-04-09T23:46:46.845Z,7.00
2023-04-09T23:49:16.400Z,6.80
2023-04-09T23:51:44.467Z,6.60
2023-04-09T23:54:13.972Z,6.70
2023-04-09T23:56:42.035Z,6.90
2023-04-09T23:59:10.372Z,7.00
